createdAt,value
2022-11-04T00:01:40.566Z,101373.97
2022-11-04T00:04:09.122Z,101380.97
2022-11-04T00:06:37.808Z,101374.38
2022-11-04T00:09:10.053Z,101375.19
2022-11-04T00:11:55.889Z,101387.25
2022-11-04T00:14:23.929Z,101380.47
2022-11-04T00:17:09.731Z,101379.56
2022-11-04T00:19:51.428Z,101371.78
2022-11-04T00:22:36.435Z,101383.78
2022-11-04T00:25:23.694Z,101379.31
2022-11-04T00:28:09.304Z,101373.38
2022-11-04T00:30:37.604Z,101373.31
2022-11-04T00:33:23.038Z,101373.31
2022-11-04T00:35:51.708Z,101369.03
2022-11-04T00:38:19.832Z,101372.53
2022-11-04T00:40:49.294Z,101369.16
2022-11-04T00:43:17.195Z,101371.97
2022-11-04T00:45:45.340Z,101370.19
2022-11-04T00:48:13.213Z,101370.13
2022-11-04T00:50:41.648Z,101370.13
2022-11-04T00:53:09.797Z,101370.19
2022-11-04T00:55:37.919Z,101370.19
2022-11-04T00:58:07.221Z,101372.81
2022-11-04T01:00:35.133Z,101370.06
2022-11-04T01:03:02.982Z,101368.09
2022-11-04T01:05:30.834Z,101369.63
2022-11-04T01:07:58.934Z,101374.75
2022-11-04T01:10:26.860Z,101377.13
2022-11-04T01:12:54.988Z,101370.84
2022-11-04T01:15:24.966Z,101376.13
2022-11-04T01:17:53.071Z,101379.66
2022-11-04T01:20:20.930Z,101376.84
2022-11-04T01:22:48.795Z,101382.97
2022-11-04T01:25:16.735Z,101378.00
2022-11-04T01:27:44.655Z,101372.94
2022-11-04T01:30:13.553Z,101373.97
2022-11-04T01:32:42.851Z,101370.56
2022-11-04T01:35:11.301Z,101375.84
2022-11-04T01:37:39.166Z,101365.34
2022-11-04T01:40:08.312Z,101368.91
2022-11-04T01:42:36.203Z,101363.72
2022-11-04T01:45:04.134Z,101369.91
2022-11-04T01:47:37.586Z,101367.47
2022-11-04T01:50:12.402Z,101363.31
2022-11-04T01:52:46.839Z,101364.41
2022-11-04T01:55:20.352Z,101362.69
2022-11-04T01:57:51.086Z,101359.94
2022-11-04T02:00:20.056Z,101359.13
2022-11-04T02:02:55.410Z,101361.72
2022-11-04T02:05:24.741Z,101356.28
2022-11-04T02:07:58.113Z,101362.25
2022-11-04T02:10:29.101Z,101362.09
2022-11-04T02:12:57.594Z,101359.34
2022-11-04T02:15:36.233Z,101357.47
2022-11-04T02:18:30.841Z,101354.34
2022-11-04T02:21:22.669Z,101349.94
2022-11-04T02:24:22.413Z,101349.88
2022-11-04T02:27:20.422Z,101351.19
2022-11-04T02:30:04.186Z,101349.72
2022-11-04T02:33:05.001Z,101345.97
2022-11-04T02:35:42.308Z,101355.16
2022-11-04T02:38:16.813Z,101356.38
2022-11-04T02:40:52.146Z,101351.53
2022-11-04T02:43:26.906Z,101350.91
2022-11-04T02:46:04.409Z,101347.53
2022-11-04T02:48:39.910Z,101350.34
2022-11-04T02:51:15.375Z,101349.63
2022-11-04T02:53:48.289Z,101355.69
2022-11-04T02:56:20.512Z,101354.03
2022-11-04T02:58:56.023Z,101352.31
2022-11-04T03:01:30.512Z,101353.31
2022-11-04T03:04:04.104Z,101347.31
2022-11-04T03:06:34.020Z,101355.97
2022-11-04T03:09:03.756Z,101359.56
2022-11-04T03:11:32.828Z,101348.38
2022-11-04T03:14:06.706Z,101364.84
2022-11-04T03:16:39.024Z,101359.50
2022-11-04T03:19:15.206Z,101366.50
2022-11-04T03:21:49.235Z,101371.00
2022-11-04T03:24:17.581Z,101358.28
2022-11-04T03:26:50.798Z,101359.19
2022-11-04T03:29:27.984Z,101356.94
2022-11-04T03:32:07.030Z,101364.81
2022-11-04T03:34:35.434Z,101359.69
2022-11-04T03:37:03.583Z,101359.69
2022-11-04T03:39:31.890Z,101361.28
2022-11-04T03:42:20.369Z,101364.09
2022-11-04T03:44:50.665Z,101367.53
2022-11-04T03:47:21.934Z,101360.88
2022-11-04T03:49:50.709Z,101368.81
2022-11-04T03:52:19.944Z,101369.81
2022-11-04T03:54:48.709Z,101377.94
2022-11-04T03:57:41.922Z,101363.28
2022-11-04T04:00:13.489Z,101358.16
2022-11-04T04:03:00.512Z,101359.88
2022-11-04T04:05:31.033Z,101359.72
2022-11-04T04:08:11.948Z,101360.50
2022-11-04T04:10:46.626Z,101358.81
2022-11-04T04:13:29.999Z,101360.56
2022-11-04T04:16:03.112Z,101364.78
2022-11-04T04:18:36.958Z,101364.78
2022-11-04T04:21:08.703Z,101366.75
2022-11-04T04:23:55.847Z,101367.59
2022-11-04T04:26:43.411Z,101362.66
2022-11-04T04:29:12.760Z,101364.53
2022-11-04T04:31:51.313Z,101370.84
2022-11-04T04:34:23.914Z,101371.84
2022-11-04T04:36:57.269Z,101373.59
2022-11-04T04:39:48.877Z,101374.50
2022-11-04T04:42:34.008Z,101375.34
2022-11-04T04:45:07.230Z,101378.88
2022-11-04T04:47:42.243Z,101382.28
2022-11-04T04:50:12.846Z,101377.09
2022-11-04T04:52:43.365Z,101379.75
2022-11-04T04:55:12.484Z,101372.09
2022-11-04T04:57:40.518Z,101377.31
2022-11-04T05:00:10.849Z,101378.03
2022-11-04T05:02:38.600Z,101375.56
2022-11-04T05:05:08.053Z,101377.00
2022-11-04T05:07:37.395Z,101375.84
2022-11-04T05:10:05.772Z,101370.66
2022-11-04T05:12:49.538Z,101379.22
2022-11-04T05:15:17.993Z,101379.16
2022-11-04T05:17:45.877Z,101383.38
2022-11-04T05:20:14.322Z,101389.41
2022-11-04T05:22:43.572Z,101380.91
2022-11-04T05:25:11.457Z,101382.59
2022-11-04T05:27:40.135Z,101392.94
2022-11-04T05:30:08.968Z,101393.72
2022-11-04T05:32:36.824Z,101391.00
2022-11-04T05:35:05.820Z,101389.22
2022-11-04T05:37:33.873Z,101390.06
2022-11-04T05:40:03.165Z,101397.84
2022-11-04T05:42:32.990Z,101391.13
2022-11-04T05:45:01.018Z,101389.59
2022-11-04T05:47:28.890Z,101385.47
2022-11-04T05:49:56.772Z,101388.06
2022-11-04T05:52:24.620Z,101382.06
2022-11-04T05:54:52.777Z,101379.63
2022-11-04T05:57:22.238Z,101373.81
2022-11-04T05:59:50.138Z,101375.69
2022-11-04T06:02:18.065Z,101369.75
2022-11-04T06:04:46.043Z,101380.28
2022-11-04T06:07:13.943Z,101384.66
2022-11-04T06:09:41.908Z,101386.47
2022-11-04T06:12:11.536Z,101386.59
2022-11-04T06:14:40.961Z,101383.34
2022-11-04T06:17:09.628Z,101380.88
2022-11-04T06:19:37.524Z,101389.56
2022-11-04T06:22:06.474Z,101382.56
2022-11-04T06:24:34.379Z,101380.88
2022-11-04T06:27:02.501Z,101386.78
2022-11-04T06:29:30.437Z,101389.38
2022-11-04T06:31:59.733Z,101389.25
2022-11-04T06:34:27.642Z,101385.41
2022-11-04T06:36:55.779Z,101382.69
2022-11-04T06:39:23.751Z,101382.56
2022-11-04T06:41:51.953Z,101382.22
2022-11-04T06:44:20.898Z,101382.13
2022-11-04T06:46:48.826Z,101387.19
2022-11-04T06:49:20.713Z,101392.19
2022-11-04T06:51:49.165Z,101387.78
2022-11-04T06:54:17.796Z,101384.16
2022-11-04T06:56:46.656Z,101391.00
2022-11-04T06:59:17.462Z,101393.53
2022-11-04T07:01:46.236Z,101397.94
2022-11-04T07:04:14.269Z,101399.59
2022-11-04T07:06:45.169Z,101391.75
2022-11-04T07:09:14.716Z,101401.94
2022-11-04T07:11:44.090Z,101398.59
2022-11-04T07:14:12.750Z,101399.34
2022-11-04T07:16:40.934Z,101399.00
2022-11-04T07:19:08.786Z,101399.53
2022-11-04T07:21:36.785Z,101408.59
2022-11-04T07:24:07.315Z,101404.88
2022-11-04T07:26:35.729Z,101418.53
2022-11-04T07:29:03.615Z,101408.84
2022-11-04T07:31:31.464Z,101415.44
2022-11-04T07:33:59.424Z,101406.66
2022-11-04T07:36:27.272Z,101409.84
2022-11-04T07:38:55.979Z,101417.34
2022-11-04T07:41:25.316Z,101405.81
2022-11-04T07:43:53.600Z,101413.28
2022-11-04T07:46:22.552Z,101406.03
2022-11-04T07:48:50.414Z,101413.56
2022-11-04T07:51:21.839Z,101407.28
2022-11-04T07:53:50.694Z,101411.56
2022-11-04T07:56:19.185Z,101418.22
2022-11-04T07:58:48.430Z,101415.56
2022-11-04T08:01:19.222Z,101407.81
2022-11-04T08:03:47.245Z,101417.13
2022-11-04T08:06:16.314Z,101408.25
2022-11-04T08:08:44.736Z,101415.91
2022-11-04T08:11:17.704Z,101409.63
2022-11-04T08:13:48.688Z,101412.00
2022-11-04T08:16:18.997Z,101409.09
2022-11-04T08:18:47.051Z,101413.72
2022-11-04T08:21:15.717Z,101410.97
2022-11-04T08:23:44.111Z,101416.88
2022-11-04T08:26:16.098Z,101412.19
2022-11-04T08:28:44.514Z,101415.44
2022-11-04T08:31:16.746Z,101409.13
2022-11-04T08:33:45.740Z,101420.13
2022-11-04T08:36:16.726Z,101409.53
2022-11-04T08:38:45.223Z,101403.16
2022-11-04T08:41:15.125Z,101405.38
2022-11-04T08:43:43.341Z,101399.78
2022-11-04T08:46:14.044Z,101400.41
2022-11-04T08:48:43.183Z,101397.56
2022-11-04T08:51:15.164Z,101387.88
2022-11-04T08:53:43.035Z,101404.13
2022-11-04T08:56:13.104Z,101400.50
2022-11-04T08:58:41.200Z,101396.84
2022-11-04T09:01:10.910Z,101400.06
2022-11-04T09:03:42.153Z,101387.63
2022-11-04T09:06:15.884Z,101386.47
2022-11-04T09:08:44.752Z,101382.88
2022-11-04T09:11:15.213Z,101380.91
2022-11-04T09:13:43.137Z,101381.44
2022-11-04T09:16:13.072Z,101380.19
2022-11-04T09:18:42.787Z,101376.38
2022-11-04T09:21:12.188Z,101379.44
2022-11-04T09:23:40.437Z,101373.13
2022-11-04T09:26:11.432Z,101373.56
2022-11-04T09:28:40.449Z,101375.06
2022-11-04T09:31:09.302Z,101379.78
2022-11-04T09:33:37.290Z,101377.59
2022-11-04T09:36:07.997Z,101369.41
2022-11-04T09:38:35.939Z,101372.59
2022-11-04T09:41:10.697Z,101376.72
2022-11-04T09:43:51.858Z,101380.84
2022-11-04T09:46:20.938Z,101378.91
2022-11-04T09:48:51.222Z,101370.81
2022-11-04T09:51:47.949Z,101375.78
2022-11-04T09:54:17.212Z,101378.09
2022-11-04T09:56:49.911Z,101381.38
2022-11-04T09:59:24.551Z,101382.88
2022-11-04T10:02:03.587Z,101385.16
2022-11-04T10:04:45.695Z,101386.75
2022-11-04T10:07:33.524Z,101386.59
2022-11-04T10:10:13.913Z,101382.84
2022-11-04T10:13:02.054Z,101380.91
2022-11-04T10:16:04.445Z,101378.13
2022-11-04T10:18:55.866Z,101370.09
2022-11-04T10:21:36.342Z,101373.19
2022-11-04T10:24:13.607Z,101372.09
2022-11-04T10:26:46.618Z,101376.00
2022-11-04T10:29:17.739Z,101375.66
2022-11-04T10:31:48.599Z,101379.66
2022-11-04T10:34:28.473Z,101382.09
2022-11-04T10:36:58.519Z,101379.06
2022-11-04T10:39:31.861Z,101377.00
2022-11-04T10:41:59.816Z,101376.56
2022-11-04T10:44:31.331Z,101382.03
2022-11-04T10:47:12.565Z,101377.38
2022-11-04T10:50:26.362Z,101384.75
2022-11-04T10:52:44.694Z,101374.72
2022-11-04T10:55:37.520Z,101375.22
2022-11-04T10:58:16.183Z,101369.69
2022-11-04T11:00:44.319Z,101373.69
2022-11-04T11:03:27.908Z,101370.25
2022-11-04T11:06:10.910Z,101370.88
2022-11-04T11:08:39.133Z,101369.78
2022-11-04T11:11:08.655Z,101366.81
2022-11-04T11:13:38.516Z,101371.16
2022-11-04T11:16:10.401Z,101376.19
2022-11-04T11:18:39.599Z,101370.84
2022-11-04T11:21:12.047Z,101367.38
2022-11-04T11:23:43.117Z,101373.28
2022-11-04T11:26:15.629Z,101363.53
2022-11-04T11:28:55.755Z,101357.09
2022-11-04T11:31:27.417Z,101359.41
2022-11-04T11:33:58.095Z,101358.75
2022-11-04T11:36:27.564Z,101357.09
2022-11-04T11:38:59.282Z,101360.63
2022-11-04T11:41:32.547Z,101365.66
2022-11-04T11:44:03.936Z,101361.47
2022-11-04T11:46:33.748Z,101358.94
2022-11-04T11:49:03.422Z,101368.56
2022-11-04T11:51:37.238Z,101369.06
2022-11-04T11:54:33.462Z,101359.72
2022-11-04T11:57:14.212Z,101357.31
2022-11-04T12:02:45.756Z,101367.25
2022-11-04T12:11:20.326Z,101363.69
2022-11-04T12:13:53.490Z,101360.13
2022-11-04T12:16:34.609Z,101360.97
2022-11-04T12:19:17.212Z,101361.91
2022-11-04T12:21:51.521Z,101359.28
2022-11-04T12:24:32.684Z,101357.59
2022-11-04T12:27:12.983Z,101354.25
2022-11-04T12:29:57.454Z,101363.88
2022-11-04T12:32:35.607Z,101361.25
2022-11-04T12:35:21.114Z,101360.59
2022-11-04T12:38:03.406Z,101357.16
2022-11-04T12:40:41.615Z,101360.88
2022-11-04T12:43:25.080Z,101356.88
2022-11-04T12:46:10.183Z,101362.13
2022-11-04T12:48:57.354Z,101356.50
2022-11-04T12:51:38.809Z,101352.13
2022-11-04T12:54:26.337Z,101355.13
2022-11-04T12:57:07.659Z,101351.03
2022-11-04T13:00:11.523Z,101345.31
2022-11-04T13:02:46.090Z,101344.44
2022-11-04T13:05:37.619Z,101345.59
2022-11-04T13:08:14.803Z,101347.25
2022-11-04T13:10:53.106Z,101348.31
2022-11-04T13:13:25.782Z,101343.34
2022-11-04T13:15:59.043Z,101342.44
2022-11-04T13:18:33.906Z,101350.19
2022-11-04T13:21:07.139Z,101352.16
2022-11-04T13:23:41.144Z,101355.91
2022-11-04T13:26:15.977Z,101348.22
2022-11-04T13:28:45.178Z,101347.47
2022-11-04T13:31:23.749Z,101344.34
2022-11-04T13:33:59.972Z,101356.78
2022-11-04T13:36:38.099Z,101354.34
2022-11-04T13:39:14.617Z,101353.59
2022-11-04T13:42:03.490Z,101363.38
2022-11-04T13:44:37.070Z,101363.28
2022-11-04T13:47:19.210Z,101359.09
2022-11-04T13:49:53.948Z,101359.78
2022-11-04T13:52:23.076Z,101361.53
2022-11-04T13:54:59.883Z,101365.00
2022-11-04T13:57:29.688Z,101372.19
2022-11-04T14:00:19.982Z,101371.69
2022-11-04T14:02:49.275Z,101368.34
2022-11-04T14:05:56.585Z,101362.53
2022-11-04T14:08:28.948Z,101365.31
2022-11-04T14:11:14.795Z,101364.78
2022-11-04T14:14:04.378Z,101358.03
2022-11-04T14:16:43.921Z,101354.78
2022-11-04T14:19:57.228Z,101355.84
2022-11-04T14:22:34.519Z,101363.97
2022-11-04T14:25:23.480Z,101362.47
2022-11-04T14:27:52.860Z,101366.94
2022-11-04T14:30:46.502Z,101368.16
2022-11-04T14:33:42.566Z,101367.72
2022-11-04T14:36:35.676Z,101369.09
2022-11-04T14:39:08.449Z,101371.06
2022-11-04T14:42:00.394Z,101374.84
2022-11-04T14:44:34.342Z,101370.81
2022-11-04T14:47:09.413Z,101371.84
2022-11-04T14:49:45.362Z,101372.19
2022-11-04T14:52:22.084Z,101369.25
2022-11-04T14:54:52.264Z,101368.72
2022-11-04T14:57:23.409Z,101367.38
2022-11-04T14:59:52.323Z,101367.66
2022-11-04T15:02:23.914Z,101367.00
2022-11-04T15:04:57.574Z,101362.09
2022-11-04T15:07:33.787Z,101361.50
2022-11-04T15:10:02.309Z,101369.50
2022-11-04T15:12:49.147Z,101368.06
2022-11-04T15:15:29.301Z,101368.16
2022-11-04T15:18:00.848Z,101377.81
2022-11-04T15:20:31.356Z,101368.41
2022-11-04T15:23:02.235Z,101373.78
2022-11-04T15:25:30.515Z,101366.13
2022-11-04T15:27:59.914Z,101370.66
2022-11-04T15:30:29.341Z,101368.13
2022-11-04T15:32:58.949Z,101369.22
2022-11-04T15:35:27.947Z,101369.28
2022-11-04T15:37:56.828Z,101376.25
2022-11-04T15:40:27.799Z,101374.69
2022-11-04T15:42:55.530Z,101373.09
2022-11-04T15:45:36.074Z,101373.16
2022-11-04T15:48:26.878Z,101376.88
2022-11-04T15:51:12.479Z,101376.97
2022-11-04T15:53:51.101Z,101375.38
2022-11-04T15:56:22.406Z,101373.69
2022-11-04T15:58:51.144Z,101366.03
2022-11-04T16:01:21.059Z,101368.88
2022-11-04T16:03:52.298Z,101375.06
2022-11-04T16:06:34.882Z,101373.41
2022-11-04T16:09:05.455Z,101376.84
2022-11-04T16:11:33.422Z,101372.47
2022-11-04T16:14:23.642Z,101375.22
2022-11-04T16:16:55.000Z,101376.16
2022-11-04T16:19:26.531Z,101374.47
2022-11-04T16:22:01.895Z,101381.44
2022-11-04T16:24:33.079Z,101367.56
2022-11-04T16:27:01.582Z,101374.63
2022-11-04T16:29:32.798Z,101377.56
2022-11-04T16:32:18.081Z,101373.44
2022-11-04T16:34:47.154Z,101376.19
2022-11-04T16:37:15.157Z,101371.97
2022-11-04T16:39:45.210Z,101367.06
2022-11-04T16:42:17.033Z,101375.81
2022-11-04T16:44:49.643Z,101380.25
2022-11-04T16:47:20.105Z,101382.19
2022-11-04T16:49:48.302Z,101378.81
2022-11-04T16:52:22.913Z,101377.94
2022-11-04T16:54:50.793Z,101378.25
2022-11-04T16:57:19.995Z,101380.09
2022-11-04T16:59:47.867Z,101393.22
2022-11-04T17:02:27.957Z,101390.06
2022-11-04T17:04:56.418Z,101387.75
2022-11-04T17:07:40.702Z,101384.47
2022-11-04T17:10:17.444Z,101386.66
2022-11-04T17:12:45.897Z,101384.38
2022-11-04T17:15:14.690Z,101377.47
2022-11-04T17:17:44.210Z,101384.59
2022-11-04T17:20:15.224Z,101383.72
2022-11-04T17:22:43.440Z,101381.19
2022-11-04T17:25:17.631Z,101388.88
2022-11-04T17:27:45.655Z,101392.47
2022-11-04T17:30:15.117Z,101389.00
2022-11-04T17:32:45.394Z,101388.34
2022-11-04T17:35:14.191Z,101378.28
2022-11-04T17:37:42.220Z,101384.38
2022-11-04T17:40:15.006Z,101379.31
2022-11-04T17:43:00.315Z,101375.97
2022-11-04T17:45:28.606Z,101370.19
2022-11-04T17:47:57.866Z,101374.66
2022-11-04T17:50:25.963Z,101368.59
2022-11-04T17:52:53.861Z,101370.28
2022-11-04T17:55:27.381Z,101371.19
2022-11-04T17:57:55.757Z,101361.00
2022-11-04T18:00:29.635Z,101360.09
2022-11-04T18:02:59.196Z,101370.50
2022-11-04T18:05:27.100Z,101362.84
2022-11-04T18:07:56.527Z,101355.88
2022-11-04T18:10:24.646Z,101349.00
2022-11-04T18:12:51.524Z,101351.53
2022-11-04T18:15:19.426Z,101350.59
2022-11-04T18:17:50.012Z,101348.84
2022-11-04T18:20:19.432Z,101351.38
2022-11-04T18:22:47.430Z,101345.31
2022-11-04T18:25:15.334Z,101348.78
2022-11-04T18:27:43.196Z,101348.72
2022-11-04T18:30:12.106Z,101342.72
2022-11-04T18:32:39.975Z,101337.44
2022-11-04T18:35:08.532Z,101343.44
2022-11-04T18:37:46.708Z,101333.00
2022-11-04T18:40:15.437Z,101345.03
2022-11-04T18:42:43.341Z,101328.47
2022-11-04T18:45:11.799Z,101325.00
2022-11-04T18:47:39.724Z,101314.56
2022-11-04T18:50:11.489Z,101321.38
2022-11-04T18:52:40.887Z,101313.56
2022-11-04T18:55:11.847Z,101301.56
2022-11-04T18:57:39.718Z,101304.09
2022-11-04T19:00:14.265Z,101310.03
2022-11-04T19:02:44.773Z,101303.94
2022-11-04T19:05:12.880Z,101295.13
2022-11-04T19:07:42.429Z,101295.88
2022-11-04T19:10:11.078Z,101288.06
2022-11-04T19:12:56.441Z,101287.16
2022-11-04T19:15:24.615Z,101297.59
2022-11-04T19:17:52.517Z,101296.59
2022-11-04T19:20:20.694Z,101300.63
2022-11-04T19:22:49.938Z,101302.25
2022-11-04T19:25:18.223Z,101302.13
2022-11-04T19:28:05.168Z,101304.56
2022-11-04T19:30:36.371Z,101304.34
2022-11-04T19:33:04.268Z,101308.53
2022-11-04T19:35:32.148Z,101314.59
2022-11-04T19:38:02.451Z,101313.59
2022-11-04T19:40:30.124Z,101312.00
2022-11-04T19:43:13.183Z,101316.19
2022-11-04T19:45:43.542Z,101331.59
2022-11-04T19:48:11.837Z,101326.41
2022-11-04T19:50:41.435Z,101331.44
2022-11-04T19:53:11.354Z,101324.50
2022-11-04T19:55:39.544Z,101326.25
2022-11-04T19:58:08.250Z,101323.78
2022-11-04T20:00:36.433Z,101334.91
2022-11-04T20:03:04.352Z,101332.31
2022-11-04T20:05:36.965Z,101327.91
2022-11-04T20:08:06.329Z,101331.38
2022-11-04T20:10:39.365Z,101339.97
2022-11-04T20:13:25.473Z,101340.88
2022-11-04T20:15:53.324Z,101351.34
2022-11-04T20:18:22.510Z,101362.56
2022-11-04T20:20:50.614Z,101351.28
2022-11-04T20:23:18.553Z,101351.97
2022-11-04T20:25:49.264Z,101362.78
2022-11-04T20:28:17.141Z,101355.72
2022-11-04T20:30:45.007Z,101358.41
2022-11-04T20:33:13.025Z,101356.81
2022-11-04T20:35:41.913Z,101354.94
2022-11-04T20:38:10.297Z,101354.22
2022-11-04T20:40:38.636Z,101353.59
2022-11-04T20:43:07.905Z,101358.72
2022-11-04T20:45:35.866Z,101352.06
2022-11-04T20:48:03.668Z,101349.75
2022-11-04T20:50:31.626Z,101353.28
2022-11-04T20:52:59.492Z,101350.91
2022-11-04T20:55:28.239Z,101364.91
2022-11-04T20:57:56.378Z,101362.38
2022-11-04T21:00:25.664Z,101361.78
2022-11-04T21:02:53.622Z,101364.53
2022-11-04T21:05:21.706Z,101369.03
2022-11-04T21:07:49.617Z,101369.25
2022-11-04T21:10:17.767Z,101371.31
2022-11-04T21:12:45.629Z,101369.84
2022-11-04T21:15:34.565Z,101370.91
2022-11-04T21:18:03.770Z,101362.69
2022-11-04T21:20:31.638Z,101362.91
2022-11-04T21:22:59.502Z,101357.22
2022-11-04T21:25:27.603Z,101352.94
2022-11-04T21:27:56.336Z,101354.84
2022-11-04T21:30:26.659Z,101353.50
2022-11-04T21:32:58.289Z,101350.22
2022-11-04T21:35:27.599Z,101345.16
2022-11-04T21:37:55.562Z,101341.84
2022-11-04T21:40:23.526Z,101343.75
2022-11-04T21:42:51.495Z,101340.50
2022-11-04T21:45:19.365Z,101344.31
2022-11-04T21:47:47.238Z,101338.31
2022-11-04T21:50:18.458Z,101342.88
2022-11-04T21:52:48.233Z,101348.09
2022-11-04T21:55:16.089Z,101344.88
2022-11-04T21:57:47.012Z,101339.88
2022-11-04T22:00:15.809Z,101335.78
2022-11-04T22:02:52.005Z,101347.94
2022-11-04T22:05:21.038Z,101342.94
2022-11-04T22:08:09.474Z,101342.03
2022-11-04T22:10:37.389Z,101334.28
2022-11-04T22:13:05.432Z,101329.16
2022-11-04T22:15:50.974Z,101332.69
2022-11-04T22:18:18.835Z,101326.69
2022-11-04T22:20:46.739Z,101325.94
2022-11-04T22:23:16.207Z,101326.09
2022-11-04T22:25:50.155Z,101329.72
2022-11-04T22:28:19.312Z,101330.50
2022-11-04T22:30:47.386Z,101323.63
2022-11-04T22:33:18.435Z,101321.16
2022-11-04T22:35:47.017Z,101329.16
2022-11-04T22:38:19.086Z,101328.38
2022-11-04T22:40:55.044Z,101322.44
2022-11-04T22:43:23.059Z,101322.53
2022-11-04T22:45:50.939Z,101315.81
2022-11-04T22:48:19.154Z,101308.00
2022-11-04T22:50:47.051Z,101319.31
2022-11-04T22:53:17.651Z,101318.47
2022-11-04T22:55:49.709Z,101321.34
2022-11-04T22:58:20.700Z,101318.75
2022-11-04T23:00:55.487Z,101315.34
2022-11-04T23:03:23.551Z,101311.88
2022-11-04T23:05:55.705Z,101324.06
2022-11-04T23:08:24.114Z,101318.25
2022-11-04T23:11:14.530Z,101319.31
2022-11-04T23:14:00.810Z,101329.03
2022-11-04T23:16:47.162Z,101329.59
2022-11-04T23:19:15.022Z,101324.25
2022-11-04T23:22:00.598Z,101321.59
2022-11-04T23:24:46.034Z,101311.88
2022-11-04T23:27:35.413Z,101313.28
2022-11-04T23:30:21.139Z,101306.22
2022-11-04T23:32:49.276Z,101299.16
2022-11-04T23:35:35.230Z,101303.38
2022-11-04T23:38:03.573Z,101295.59
2022-11-04T23:40:33.177Z,101294.66
2022-11-04T23:43:01.420Z,101283.28
2022-11-04T23:46:00.960Z,101299.59
2022-11-04T23:48:46.485Z,101292.78
2022-11-04T23:51:31.706Z,101279.00
2022-11-04T23:54:17.124Z,101272.59
2022-11-04T23:57:02.667Z,101274.19
2022-11-04T23:59:49.399Z,101272.34
